Time;durP1;ratioP1;P1;durP2;ratioP2;P2;SDS_P1;SDS_P2;PMS_P1;PMS_P2;Temp;Humidity;BMP_temperature;BMP_pressure;BME280_temperature;BME280_humidity;BME280_pressure;Samples;Min_cycle;Max_cycle;Signal;HPM_P1;HPM_P2
2023/09/24 00:02:14;;;;;;;61.05;11.30;;;;;;;23.09;82.59;100206.50;5034831;28;20033;-69
2023/09/24 00:04:41;;;;;;;14.15;7.22;;;;;;;22.69;82.70;100140.56;5052240;28;20033;-70
2023/09/24 00:07:07;;;;;;;15.60;7.43;;;;;;;22.93;83.19;100189.25;4991729;28;20033;-71
2023/09/24 00:09:33;;;;;;;11.63;6.63;;;;;;;22.91;83.62;100193.69;5052306;28;20036;-70
2023/09/24 00:11:58;;;;;;;14.15;7.50;;;;;;;22.64;84.38;100163.47;5052564;28;20051;-76
2023/09/24 00:14:26;;;;;;;14.98;7.35;;;;;;;22.72;85.33;100193.16;5052516;28;20541;-68
2023/09/24 00:16:52;;;;;;;14.55;7.93;;;;;;;22.66;85.47;100186.22;5052685;28;20025;-73
2023/09/24 00:19:17;;;;;;;15.88;7.97;;;;;;;22.61;85.78;100185.44;5052251;28;20033;-74
2023/09/24 00:21:43;;;;;;;17.20;8.60;;;;;;;22.66;85.91;100188.84;5033857;28;20033;-70
2023/09/24 00:24:10;;;;;;;17.05;7.93;;;;;;;22.56;85.77;100176.75;5052434;28;20071;-69
2023/09/24 00:26:35;;;;;;;15.68;8.07;;;;;;;22.54;86.62;100183.81;5052064;28;20099;-68
2023/09/24 00:29:02;;;;;;;14.07;8.30;;;;;;;22.56;86.48;100182.03;5051978;28;20072;-70
2023/09/24 00:31:27;;;;;;;12.57;7.47;;;;;;;22.55;86.11;100196.06;5033865;28;20128;-71
2023/09/24 00:33:53;;;;;;;13.25;7.20;;;;;;;22.60;86.27;100199.47;5033744;28;20390;-69
2023/09/24 00:36:19;;;;;;;12.73;7.10;;;;;;;22.57;86.54;100196.91;5016509;28;20048;-71
2023/09/24 00:38:45;;;;;;;23.98;8.45;;;;;;;22.42;85.71;100182.25;5052247;28;20029;-68
2023/09/24 00:41:10;;;;;;;14.20;7.18;;;;;;;22.40;85.96;100195.41;5052066;28;20419;-73
2023/09/24 00:43:36;;;;;;;16.25;7.22;;;;;;;22.36;86.03;100192.84;5051554;28;20025;-68
2023/09/24 00:46:04;;;;;;;16.33;7.68;;;;;;;22.25;86.19;100183.34;5052111;28;20389;-68
2023/09/24 00:48:32;;;;;;;15.18;7.82;;;;;;;21.97;86.30;100138.25;5051614;28;20029;-69
2023/09/24 00:51:02;;;;;;;16.20;7.13;;;;;;;22.34;85.78;100194.63;5051605;28;20478;-68
2023/09/24 00:53:30;;;;;;;12.05;7.40;;;;;;;22.39;85.78;100196.34;5051749;28;20017;-69
2023/09/24 00:55:56;;;;;;;24.50;8.32;;;;;;;22.35;85.78;100193.75;5032406;28;20063;-70
2023/09/24 00:58:23;;;;;;;13.55;7.47;;;;;;;22.11;86.04;100156.44;5051658;28;20060;-74
2023/09/24 01:00:51;;;;;;;12.70;6.80;;;;;;;22.22;86.38;100180.78;5051768;28;20107;-68
2023/09/24 01:03:18;;;;;;;17.20;7.47;;;;;;;22.14;87.00;100167.75;5051317;28;20028;-67
2023/09/24 01:05:49;;;;;;;34.00;8.45;;;;;;;21.94;87.45;100146.16;5051672;28;20032;-69
2023/09/24 01:08:17;;;;;;;15.38;7.63;;;;;;;22.16;87.34;100190.50;5051703;28;20025;-76
2023/09/24 01:10:47;;;;;;;30.27;7.85;;;;;;;22.15;86.90;100202.78;5050376;28;20029;-69
2023/09/24 01:13:20;;;;;;;23.30;8.07;;;;;;;21.76;86.74;100127.16;5051303;28;20040;-69
2023/09/24 01:15:49;;;;;;;18.90;8.00;;;;;;;21.69;86.53;100125.50;5050931;28;20083;-69
2023/09/24 01:18:19;;;;;;;78.68;10.38;;;;;;;21.96;86.52;100186.44;5051815;28;20020;-70
2023/09/24 01:20:47;;;;;;;18.05;7.00;;;;;;;21.57;86.65;100130.94;5050904;28;20036;-66
2023/09/24 01:23:14;;;;;;;71.45;10.93;;;;;;;21.99;86.82;100207.41;5051478;28;20025;-69
2023/09/24 01:25:40;;;;;;;14.48;6.75;;;;;;;21.71;86.15;100147.38;5051341;28;20025;-67
2023/09/24 01:28:07;;;;;;;27.25;7.70;;;;;;;22.04;86.24;100209.97;5051373;28;20028;-68
2023/09/24 01:30:33;;;;;;;17.02;7.07;;;;;;;21.59;86.04;100137.88;5051003;28;20021;-68
2023/09/24 01:33:00;;;;;;;14.57;7.05;;;;;;;21.71;86.82;100199.91;5051196;28;20127;-71
2023/09/24 01:35:29;;;;;;;18.20;7.25;;;;;;;21.75;87.30;100213.88;5051327;28;20396;-68
2023/09/24 01:37:59;;;;;;;14.57;6.57;;;;;;;21.64;87.40;100195.63;5051123;28;20035;-67
2023/09/24 01:40:27;;;;;;;16.48;7.53;;;;;;;21.69;87.49;100214.81;5050927;28;20029;-68
2023/09/24 01:42:55;;;;;;;13.35;7.00;;;;;;;21.57;87.64;100199.22;5050728;28;20028;-67
2023/09/24 01:45:21;;;;;;;12.32;7.68;;;;;;;21.67;87.82;100211.38;5050837;28;20017;-76
2023/09/24 01:47:49;;;;;;;10.38;6.55;;;;;;;21.62;87.35;100214.03;5033090;28;20052;-67
2023/09/24 01:50:16;;;;;;;12.13;7.40;;;;;;;21.65;87.97;100226.28;5051064;28;20699;-72
2023/09/24 01:52:43;;;;;;;13.88;7.18;;;;;;;21.49;88.36;100210.66;5050817;28;20036;-71
2023/09/24 01:55:08;;;;;;;16.98;7.65;;;;;;;21.21;88.55;100154.13;5050756;28;20025;-74
2023/09/24 01:57:34;;;;;;;12.48;7.13;;;;;;;21.59;88.62;100218.47;5050759;28;20381;-66
2023/09/24 02:00:11;;;;;;;12.82;7.63;;;;;;;21.05;89.33;100161.28;5014996;28;20032;-71
2023/09/24 02:02:36;;;;;;;14.05;7.70;;;;;;;21.10;90.13;100177.88;5050763;28;20036;-70
2023/09/24 02:05:05;;;;;;;12.05;7.13;;;;;;;21.39;90.26;100224.78;5050288;28;20024;-70
2023/09/24 02:07:31;;;;;;;14.40;7.55;;;;;;;20.81;90.14;100123.94;5050657;28;20028;-68
2023/09/24 02:09:57;;;;;;;11.35;6.75;;;;;;;21.35;90.24;100215.22;5049815;28;20408;-68
2023/09/24 02:12:22;;;;;;;15.40;7.10;;;;;;;20.97;90.54;100154.41;5050323;28;20032;-68
2023/09/24 02:14:48;;;;;;;16.27;6.80;;;;;;;21.33;90.71;100214.34;5037429;28;20021;-68
2023/09/24 02:17:13;;;;;;;14.13;6.80;;;;;;;21.32;90.67;100215.25;5050526;28;20028;-69
2023/09/24 02:19:44;;;;;;;11.70;7.20;;;;;;;21.29;90.51;100207.41;5050382;28;20036;-66
2023/09/24 02:22:11;;;;;;;11.80;7.13;;;;;;;21.29;91.38;100225.78;5050148;28;20059;-66
2023/09/24 02:24:38;;;;;;;13.93;7.63;;;;;;;21.29;91.51;100229.28;5050041;28;20029;-70
2023/09/24 02:27:04;;;;;;;15.52;7.35;;;;;;;21.32;91.22;100220.50;5049403;28;20087;-72
2023/09/24 02:29:29;;;;;;;17.27;8.07;;;;;;;21.05;90.22;100148.16;5049992;28;20020;-69
2023/09/24 02:31:55;;;;;;;13.05;7.50;;;;;;;21.43;90.56;100221.25;5049579;28;20032;-67
2023/09/24 02:34:20;;;;;;;13.57;7.72;;;;;;;21.40;90.32;100209.91;5050064;28;20107;-70
2023/09/24 02:36:46;;;;;;;15.05;7.90;;;;;;;21.55;89.43;100216.75;5050040;28;20025;-71
2023/09/24 02:39:11;;;;;;;10.35;7.05;;;;;;;21.69;88.55;100211.34;5036374;28;20029;-67
2023/09/24 02:41:36;;;;;;;9.88;6.70;;;;;;;21.68;88.19;100207.81;5049912;28;20028;-67
2023/09/24 02:44:03;;;;;;;10.48;6.65;;;;;;;21.69;87.73;100214.81;5036392;28;20044;-68
2023/09/24 02:46:30;;;;;;;12.82;7.18;;;;;;;21.55;88.51;100209.72;5049566;28;20025;-68
2023/09/24 02:48:55;;;;;;;14.77;7.43;;;;;;;21.58;89.34;100220.25;5049911;28;20687;-68
2023/09/24 02:51:20;;;;;;;12.07;6.93;;;;;;;21.50;89.56;100214.16;5049838;28;20053;-70
2023/09/24 02:53:47;;;;;;;12.32;7.43;;;;;;;21.58;88.74;100228.13;5049383;28;20024;-68
2023/09/24 02:56:13;;;;;;;11.70;7.05;;;;;;;21.45;88.95;100221.25;5049369;28;20035;-69
2023/09/24 02:58:39;;;;;;;16.15;7.20;;;;;;;21.42;89.21;100221.25;5036674;28;20024;-69
2023/09/24 03:01:14;;;;;;;12.48;6.97;;;;;;;21.36;89.88;100224.84;5049379;28;20098;-75
2023/09/24 03:03:40;;;;;;;11.20;7.30;;;;;;;21.34;89.66;100216.09;5049947;28;20044;-70
2023/09/24 03:06:06;;;;;;;13.60;7.50;;;;;;;21.24;89.96;100219.72;5049662;28;20025;-70
2023/09/24 03:08:32;;;;;;;16.35;7.88;;;;;;;20.90;89.54;100157.97;5049901;28;20476;-69
2023/09/24 03:10:57;;;;;;;12.32;7.25;;;;;;;21.23;89.92;100224.09;5048868;28;20040;-68
2023/09/24 03:13:23;;;;;;;14.13;7.63;;;;;;;21.14;89.57;100222.44;5050003;28;20087;-70
2023/09/24 03:15:48;;;;;;;15.25;7.93;;;;;;;21.04;90.17;100233.06;5050050;28;20052;-69
2023/09/24 03:18:14;;;;;;;16.48;8.23;;;;;;;20.87;91.01;100222.72;5049803;28;20066;-73
2023/09/24 03:20:39;;;;;;;15.23;7.90;;;;;;;20.86;91.75;100227.13;5049764;28;20036;-69
2023/09/24 03:23:09;;;;;;;20.45;7.85;;;;;;;20.71;92.05;100217.63;5049701;28;20021;-70
2023/09/24 03:25:35;;;;;;;13.77;7.88;;;;;;;20.64;92.68;100213.28;5049930;28;20037;-69
2023/09/24 03:28:01;;;;;;;13.40;7.60;;;;;;;20.57;93.86;100228.19;5049742;28;20028;-69
2023/09/24 03:30:26;;;;;;;20.83;7.35;;;;;;;20.63;93.81;100227.28;5049941;28;20060;-69
2023/09/24 03:32:53;;;;;;;16.77;7.63;;;;;;;20.58;93.96;100205.47;5049751;28;20033;-70
2023/09/24 03:35:23;;;;;;;21.45;8.00;;;;;;;20.30;93.60;100162.00;5052003;28;20113;-70
2023/09/24 03:37:48;;;;;;;18.10;8.13;;;;;;;20.58;94.67;100232.53;5041500;28;20029;-70
2023/09/24 03:40:15;;;;;;;24.40;8.30;;;;;;;20.58;95.02;100240.41;5039647;28;20028;-69
2023/09/24 03:42:42;;;;;;;17.38;8.15;;;;;;;20.66;94.21;100235.09;5038361;28;20096;-75
2023/09/24 03:45:12;;;;;;;36.38;8.80;;;;;;;20.59;93.84;100233.44;5033779;28;20025;-72
2023/09/24 03:47:38;;;;;;;15.68;7.88;;;;;;;20.56;93.13;100229.09;5033676;28;20017;-70
2023/09/24 03:50:05;;;;;;;12.73;7.75;;;;;;;20.53;94.19;100237.81;5040512;28;20056;-71
2023/09/24 03:52:30;;;;;;;20.63;8.00;;;;;;;20.49;93.75;100241.34;5053579;28;20116;-70
2023/09/24 03:54:59;;;;;;;11.70;7.68;;;;;;;20.48;94.26;100239.63;5053111;28;20140;-69
2023/09/24 03:57:27;;;;;;;14.75;8.38;;;;;;;19.81;94.30;100160.56;5047154;28;20116;-69
2023/09/24 03:59:56;;;;;;;15.23;7.68;;;;;;;19.82;94.72;100166.66;5053125;28;20037;-70
2023/09/24 04:02:23;;;;;;;55.13;10.60;;;;;;;19.95;94.49;100163.13;5051557;28;20147;-70
2023/09/24 04:04:49;;;;;;;12.45;6.75;;;;;;;20.39;93.90;100221.34;5051894;28;20029;-68
2023/09/24 04:07:15;;;;;;;18.38;8.25;;;;;;;20.34;94.17;100218.75;5051646;28;20025;-71
2023/09/24 04:09:41;;;;;;;16.65;8.30;;;;;;;20.43;94.66;100225.66;5039855;28;20115;-68
2023/09/24 04:12:08;;;;;;;19.80;8.32;;;;;;;19.97;95.62;100155.25;5047241;28;20021;-73
2023/09/24 04:14:34;;;;;;;21.00;8.50;;;;;;;19.93;96.32;100182.34;5053336;28;20125;-69
2023/09/24 04:16:59;;;;;;;23.95;9.07;;;;;;;20.25;97.21;100250.28;5043142;28;20104;-70
2023/09/24 04:19:26;;;;;;;32.58;9.02;;;;;;;19.83;97.57;100189.41;5053156;28;20484;-69
2023/09/24 04:21:52;;;;;;;19.15;8.68;;;;;;;20.23;97.39;100259.91;5046097;28;20653;-71
2023/09/24 04:24:18;;;;;;;54.05;10.57;;;;;;;20.24;97.56;100272.13;5042251;28;20032;-72
2023/09/24 04:26:47;;;;;;;39.70;9.65;;;;;;;20.16;96.72;100255.56;5050830;28;20028;-69
2023/09/24 04:29:15;;;;;;;18.83;8.30;;;;;;;20.18;96.33;100280.03;5052842;28;20025;-69
2023/09/24 04:31:42;;;;;;;17.45;7.78;;;;;;;20.18;96.33;100267.78;5052499;28;20053;-69
2023/09/24 04:34:09;;;;;;;17.35;9.18;;;;;;;20.08;96.00;100239.03;5053222;28;20021;-75
2023/09/24 04:36:35;;;;;;;27.00;9.35;;;;;;;20.17;96.00;100258.16;5052673;28;20056;-72
2023/09/24 04:39:02;;;;;;;28.98;10.20;;;;;;;19.83;95.93;100185.00;5051714;28;20551;-69
2023/09/24 04:41:27;;;;;;;17.55;10.27;;;;;;;20.26;96.84;100256.38;5052477;28;20048;-69
2023/09/24 04:43:53;;;;;;;16.17;10.10;;;;;;;20.26;97.84;100256.38;5045048;28;20147;-70
2023/09/24 04:46:18;;;;;;;21.05;10.57;;;;;;;20.26;97.96;100264.25;5042199;28;20037;-68
2023/09/24 04:48:43;;;;;;;87.22;14.30;;;;;;;20.20;99.50;100273.91;5040765;28;20029;-69
2023/09/24 04:51:09;;;;;;;16.20;9.52;;;;;;;20.12;99.52;100280.06;5043012;28;20037;-71
2023/09/24 04:53:35;;;;;;;20.90;11.32;;;;;;;19.88;100.00;100290.63;5035151;28;20117;-69
2023/09/24 04:56:06;;;;;;;22.52;11.02;;;;;;;19.84;100.00;100288.91;5032672;28;20044;-69
2023/09/24 04:58:32;;;;;;;24.27;12.38;;;;;;;19.64;100.00;100241.81;5032310;28;20075;-67
2023/09/24 05:01:05;;;;;;;26.00;12.25;;;;;;;20.06;99.40;100287.94;5032111;28;20037;-69
2023/09/24 05:03:31;;;;;;;27.65;12.77;;;;;;;20.12;98.49;100261.72;5032477;28;20076;-73
2023/09/24 05:05:57;;;;;;;26.15;13.27;;;;;;;20.25;98.00;100268.63;5032088;28;20103;-70
2023/09/24 05:08:22;;;;;;;26.67;13.50;;;;;;;20.43;97.48;100291.22;5031951;28;20480;-69
2023/09/24 05:10:49;;;;;;;27.77;14.52;;;;;;;20.10;97.47;100211.03;5031948;28;20032;-69
2023/09/24 05:13:15;;;;;;;30.23;14.88;;;;;;;20.69;97.42;100282.31;5031890;28;20499;-75
2023/09/24 05:15:40;;;;;;;33.63;19.05;;;;;;;20.84;96.68;100282.19;5025914;28;20025;-68
2023/09/24 05:18:06;;;;;;;44.20;20.55;;;;;;;20.99;96.64;100291.69;5031985;28;20028;-72
2023/09/24 05:20:32;;;;;;;61.17;20.77;;;;;;;21.09;96.11;100291.63;5030750;28;20041;-69
2023/09/24 05:22:57;;;;;;;26.27;16.33;;;;;;;21.11;96.56;100290.72;5031937;28;20045;-69
2023/09/24 05:25:22;;;;;;;29.25;15.70;;;;;;;21.23;96.64;100294.13;5031730;28;20040;-68
2023/09/24 05:27:48;;;;;;;61.38;16.83;;;;;;;21.34;96.29;100293.09;5031654;28;20052;-69
2023/09/24 05:30:13;;;;;;;28.65;15.85;;;;;;;21.04;96.94;100267.19;5032049;28;20025;-70
2023/09/24 05:32:39;;;;;;;22.48;12.48;;;;;;;21.19;97.79;100305.53;5014160;28;20527;-69
2023/09/24 05:35:05;;;;;;;56.03;13.95;;;;;;;20.95;97.03;100291.75;5031699;28;20481;-72
2023/09/24 05:37:30;;;;;;;17.95;10.10;;;;;;;21.14;96.93;100323.94;5031484;28;20029;-69
2023/09/24 05:39:56;;;;;;;14.82;9.10;;;;;;;20.70;97.11;100255.19;5031655;28;20049;-69
2023/09/24 05:42:22;;;;;;;18.30;8.93;;;;;;;20.99;97.26;100283.81;5031590;28;20029;-69
2023/09/24 05:44:48;;;;;;;28.60;9.75;;;;;;;21.22;97.66;100310.75;5031254;28;20036;-68
2023/09/24 05:47:14;;;;;;;16.77;9.00;;;;;;;21.01;96.49;100282.06;5031560;28;20029;-68
2023/09/24 05:49:39;;;;;;;24.30;9.20;;;;;;;21.29;96.35;100304.56;5043264;28;20114;-69
2023/09/24 05:52:05;;;;;;;18.25;8.60;;;;;;;21.07;95.07;100249.66;5051173;28;20032;-68
2023/09/24 05:54:36;;;;;;;26.65;10.05;;;;;;;21.61;95.13;100327.03;5051195;28;20025;-69
2023/09/24 05:57:03;;;;;;;33.08;11.13;;;;;;;21.64;94.05;100319.97;5048209;28;20029;-69
2023/09/24 05:59:28;;;;;;;22.45;9.25;;;;;;;21.73;93.59;100326.91;5041102;28;20037;-71
2023/09/24 06:01:54;;;;;;;20.92;9.95;;;;;;;21.88;92.79;100332.84;5031524;28;20025;-74
2023/09/24 06:04:19;;;;;;;15.90;8.82;;;;;;;21.93;92.53;100329.28;5042423;28;20029;-67
2023/09/24 06:06:45;;;;;;;22.67;9.20;;;;;;;21.95;91.48;100327.50;5051187;28;20024;-69
2023/09/24 06:09:11;;;;;;;21.98;9.50;;;;;;;22.14;91.07;100320.25;5046807;28;20407;-70
2023/09/24 06:11:37;;;;;;;16.77;8.32;;;;;;;22.13;89.97;100300.09;5023218;28;20032;-69
2023/09/24 06:14:08;;;;;;;20.02;8.88;;;;;;;22.31;89.67;100324.41;5040349;28;20451;-74
2023/09/24 06:16:37;;;;;;;15.82;8.02;;;;;;;22.33;89.37;100306.84;5041821;28;20117;-69
2023/09/24 06:19:03;;;;;;;13.70;7.47;;;;;;;22.56;89.50;100316.19;5042126;28;20039;-70
2023/09/24 06:21:28;;;;;;;17.50;8.30;;;;;;;22.51;89.49;100299.63;5041586;28;20059;-70
2023/09/24 06:23:55;;;;;;;18.00;8.13;;;;;;;22.78;87.29;100329.91;5040691;28;20029;-72
2023/09/24 06:26:21;;;;;;;13.50;8.73;;;;;;;22.96;85.87;100331.34;5041264;28;20060;-69
2023/09/24 06:28:46;;;;;;;16.60;8.15;;;;;;;22.66;84.62;100245.88;5049259;28;20056;-69
2023/09/24 06:31:12;;;;;;;16.83;8.57;;;;;;;23.24;84.54;100326.53;5042429;28;20443;-70
2023/09/24 06:33:38;;;;;;;16.92;9.23;;;;;;;22.77;84.56;100260.59;5016611;28;20029;-69
2023/09/24 06:36:04;;;;;;;19.35;8.95;;;;;;;23.11;83.89;100332.84;5040323;28;20128;-70
2023/09/24 06:38:30;;;;;;;21.17;9.40;;;;;;;23.13;83.24;100340.72;5021467;28;20034;-70
2023/09/24 06:41:00;;;;;;;20.52;8.65;;;;;;;23.20;82.27;100338.00;5012868;28;20044;-69
2023/09/24 06:43:25;;;;;;;18.55;8.77;;;;;;;23.35;80.99;100341.25;5034531;28;20029;-69
2023/09/24 06:45:53;;;;;;;23.17;8.52;;;;;;;23.66;79.31;100356.50;5030392;28;20048;-72
2023/09/24 06:48:19;;;;;;;19.33;8.70;;;;;;;23.87;78.58;100352.56;5029808;28;20478;-69
2023/09/24 06:50:44;;;;;;;21.63;9.30;;;;;;;24.01;77.57;100368.16;5030397;28;20497;-69
2023/09/24 06:53:10;;;;;;;57.88;10.82;;;;;;;24.11;78.43;100353.00;5029861;28;20025;-70
2023/09/24 06:55:39;;;;;;;18.65;9.13;;;;;;;24.20;77.21;100352.78;5030705;28;20116;-73
2023/09/24 06:58:04;;;;;;;21.33;8.60;;;;;;;24.30;74.64;100357.00;5030259;28;20509;-76
2023/09/24 07:00:30;;;;;;;22.02;9.25;;;;;;;24.33;74.48;100362.19;5030384;28;20087;-69
2023/09/24 07:02:55;;;;;;;23.15;8.77;;;;;;;24.40;75.45;100357.66;5030144;28;20037;-69
2023/09/24 07:05:20;;;;;;;21.25;9.32;;;;;;;24.47;76.10;100361.88;5030403;28;20457;-69
2023/09/24 07:07:47;;;;;;;21.77;9.20;;;;;;;24.52;75.41;100343.31;5029990;28;20100;-70
2023/09/24 07:10:12;;;;;;;27.02;9.15;;;;;;;24.53;74.69;100323.94;5029417;28;20022;-69
2023/09/24 07:12:38;;;;;;;22.08;8.63;;;;;;;24.77;75.20;100350.69;5030220;28;20029;-70
2023/09/24 07:15:05;;;;;;;19.65;8.48;;;;;;;24.73;72.75;100298.88;5030090;28;20493;-69
2023/09/24 07:17:30;;;;;;;20.05;8.32;;;;;;;25.10;72.46;100342.84;4995253;28;20573;-69
2023/09/24 07:19:56;;;;;;;17.58;8.50;;;;;;;25.19;71.03;100335.53;5030013;28;20109;-69
2023/09/24 07:22:26;;;;;;;21.30;8.35;;;;;;;25.28;70.79;100326.50;5029897;28;20037;-70
2023/09/24 07:24:52;;;;;;;22.77;8.63;;;;;;;25.42;70.67;100326.19;5029753;28;20507;-69
2023/09/24 07:27:19;;;;;;;16.23;7.97;;;;;;;25.47;68.32;100312.81;5030158;28;20087;-70
2023/09/24 07:29:45;;;;;;;22.60;8.25;;;;;;;25.60;67.99;100323.94;5030077;28;20033;-69
2023/09/24 07:32:11;;;;;;;17.15;8.30;;;;;;;25.60;67.97;100318.66;5030153;28;20036;-75
2023/09/24 07:34:36;;;;;;;19.67;8.05;;;;;;;25.86;67.23;100340.84;5030455;28;20029;-67
2023/09/24 07:37:03;;;;;;;35.63;9.45;;;;;;;25.91;70.41;100331.88;5030220;28;20026;-70
2023/09/24 07:39:29;;;;;;;22.48;7.88;;;;;;;25.90;68.27;100327.47;5012513;28;20032;-69
2023/09/24 07:41:56;;;;;;;14.82;6.80;;;;;;;26.02;66.75;100325.38;5011997;28;20112;-69
2023/09/24 07:44:22;;;;;;;15.57;7.47;;;;;;;26.09;65.96;100321.69;5029918;28;20025;-75
2023/09/24 07:46:50;;;;;;;22.95;8.48;;;;;;;26.07;66.07;100304.97;5029745;28;20029;-69
2023/09/24 07:49:15;;;;;;;16.58;7.20;;;;;;;26.24;66.29;100323.00;5029382;28;20037;-69
2023/09/24 07:51:41;;;;;;;17.38;7.45;;;;;;;26.27;67.06;100326.44;5029816;28;20041;-69
2023/09/24 07:54:09;;;;;;;16.10;7.78;;;;;;;26.07;65.59;100326.16;5029845;28;20044;-75
2023/09/24 07:56:34;;;;;;;19.20;7.97;;;;;;;26.11;64.67;100311.94;5029649;28;20026;-70
2023/09/24 07:59:02;;;;;;;104.28;14.60;;;;;;;26.30;65.70;100318.38;5029847;28;20029;-69
2023/09/24 08:01:28;;;;;;;15.35;7.50;;;;;;;26.42;63.11;100303.06;5029655;28;20057;-68
2023/09/24 08:03:53;;;;;;;16.55;6.82;;;;;;;26.58;65.13;100314.00;5029366;28;20160;-70
2023/09/24 08:06:19;;;;;;;25.30;7.28;;;;;;;26.50;64.15;100274.53;5029550;28;20031;-69
2023/09/24 08:08:44;;;;;;;18.77;6.88;;;;;;;26.81;62.23;100310.63;5029474;28;20037;-69
2023/09/24 08:11:09;;;;;;;32.75;7.22;;;;;;;26.90;62.29;100305.03;5029909;28;20017;-70
2023/09/24 08:13:35;;;;;;;14.75;6.00;;;;;;;27.00;59.36;100304.72;5029638;28;20030;-68
2023/09/24 08:16:00;;;;;;;22.60;6.65;;;;;;;27.10;58.40;100303.50;5029650;28;20464;-69
2023/09/24 08:18:26;;;;;;;16.80;6.10;;;;;;;27.21;60.18;100305.78;5029585;28;20113;-69
2023/09/24 08:20:55;;;;;;;17.27;5.60;;;;;;;27.26;56.55;100304.69;5030978;28;20025;-68
2023/09/24 08:23:23;;;;;;;15.23;6.00;;;;;;;27.35;55.58;100299.97;5033365;28;20033;-72
2023/09/24 08:25:50;;;;;;;15.63;5.80;;;;;;;27.08;57.78;100234.66;5033547;28;20033;-68
2023/09/24 08:28:15;;;;;;;15.55;5.95;;;;;;;27.50;55.29;100295.94;5033177;28;20108;-69
2023/09/24 08:30:41;;;;;;;10.90;5.70;;;;;;;27.64;52.27;100296.31;5033207;28;20140;-68
2023/09/24 08:33:08;;;;;;;18.60;5.68;;;;;;;27.79;50.27;100294.00;5032725;28;20026;-71
2023/09/24 08:35:35;;;;;;;13.48;5.13;;;;;;;27.90;52.98;100287.38;5032957;28;20034;-69
2023/09/24 08:38:02;;;;;;;78.68;46.47;;;;;;;27.81;45.69;100293.00;5033044;28;20026;-71
2023/09/24 08:40:32;;;;;;;831.33;663.55;;;;;;;27.75;47.47;100288.81;5032810;28;20579;-69
2023/09/24 08:42:58;;;;;;;16.42;7.75;;;;;;;27.67;47.51;100287.38;5032900;28;20055;-70
2023/09/24 08:45:26;;;;;;;32.63;18.27;;;;;;;27.81;49.22;100282.41;5033029;28;20038;-69
2023/09/24 08:47:53;;;;;;;29.08;15.35;;;;;;;27.80;49.51;100275.38;5045263;28;20566;-70
2023/09/24 08:50:41;;;;;;;106.07;64.50;;;;;;;27.79;51.11;100286.91;5001924;28;20473;-68
2023/09/24 08:53:12;;;;;;;32.08;11.27;;;;;;;27.93;50.26;100281.94;4992398;28;20042;-68
2023/09/24 08:55:41;;;;;;;17.33;7.07;;;;;;;28.10;50.37;100269.81;4981378;28;20494;-69
2023/09/24 08:58:07;;;;;;;;;;;;;;;28.28;48.50;100262.09;4981452;28;20033;-69
2023/09/24 09:00:33;;;;;;;17.98;6.05;;;;;;;28.49;47.49;100252.38;4985127;28;20467;-71
2023/09/24 09:03:03;;;;;;;17.17;7.03;;;;;;;28.69;48.06;100254.25;4952861;28;20049;-69
2023/09/24 09:05:29;;;;;;;17.73;7.45;;;;;;;28.85;47.74;100249.13;4981267;28;20108;-70
2023/09/24 09:07:58;;;;;;;17.92;6.70;;;;;;;29.08;47.57;100248.13;4979939;28;20486;-68
2023/09/24 09:10:28;;;;;;;14.15;7.15;;;;;;;28.96;49.03;100206.13;4979088;28;20038;-71
2023/09/24 09:13:12;;;;;;;21.33;7.75;;;;;;;29.12;49.28;100201.00;4979407;28;20035;-69
2023/09/24 09:15:38;;;;;;;18.75;7.43;;;;;;;29.49;49.67;100247.25;4980791;28;20046;-70
2023/09/24 09:18:05;;;;;;;17.58;7.40;;;;;;;29.55;46.79;100238.97;4970883;28;20036;-69
2023/09/24 09:20:45;;;;;;;20.90;7.20;;;;;;;29.63;46.58;100244.78;4981456;28;20030;-69
2023/09/24 09:23:13;;;;;;;16.42;7.00;;;;;;;29.77;46.23;100244.19;5011984;28;20127;-68
2023/09/24 09:25:49;;;;;;;15.60;7.30;;;;;;;29.88;45.55;100240.97;5012403;28;20025;-68
2023/09/24 09:28:29;;;;;;;15.45;7.35;;;;;;;30.05;45.09;100224.25;5011985;28;20037;-69
2023/09/24 09:30:57;;;;;;;14.43;7.35;;;;;;;30.22;44.52;100227.88;5012288;28;20026;-70
2023/09/24 09:33:31;;;;;;;25.20;8.33;;;;;;;30.30;43.96;100236.38;5026506;28;20117;-69
2023/09/24 09:36:00;;;;;;;19.38;6.47;;;;;;;30.34;43.44;100228.16;5011025;28;20046;-69
2023/09/24 09:38:27;;;;;;;24.67;7.40;;;;;;;30.42;46.70;100226.88;5011982;28;20489;-68
2023/09/24 09:40:55;;;;;;;20.75;7.63;;;;;;;30.62;43.45;100233.94;5010088;28;20364;-68
2023/09/24 09:43:29;;;;;;;14.20;6.68;;;;;;;30.77;44.15;100218.97;5016982;28;20076;-69
2023/09/24 09:45:57;;;;;;;19.48;7.00;;;;;;;30.80;42.70;100214.31;5031394;28;20025;-69
2023/09/24 09:48:30;;;;;;;15.85;6.70;;;;;;;30.83;42.64;100210.66;5031263;28;20124;-70
2023/09/24 09:51:06;;;;;;;15.35;6.72;;;;;;;30.99;40.86;100221.34;5043740;28;20447;-69
2023/09/24 09:53:34;;;;;;;20.00;6.20;;;;;;;30.87;42.58;100176.69;5049608;28;20032;-70
2023/09/24 09:56:05;;;;;;;35.58;8.25;;;;;;;31.24;40.55;100220.97;5048052;28;20083;-69
2023/09/24 09:58:33;;;;;;;19.77;6.60;;;;;;;31.35;41.59;100217.69;5015617;28;20033;-69
2023/09/24 10:01:00;;;;;;;19.73;6.70;;;;;;;31.43;39.68;100223.50;5030907;28;20045;-72
2023/09/24 10:03:27;;;;;;;15.23;6.70;;;;;;;31.43;43.16;100207.50;5045694;28;20029;-68
2023/09/24 10:05:53;;;;;;;28.70;6.20;;;;;;;31.45;38.39;100220.72;5051022;28;20094;-68
2023/09/24 10:08:42;;;;;;;15.38;6.03;;;;;;;31.49;37.56;100192.09;5015668;28;20071;-69
2023/09/24 10:11:10;;;;;;;28.30;7.30;;;;;;;31.69;37.98;100210.56;5041616;28;20029;-68
2023/09/24 10:13:50;;;;;;;19.77;6.13;;;;;;;31.57;37.40;100193.38;5035249;28;20111;-69
2023/09/24 10:16:44;;;;;;;16.38;6.50;;;;;;;31.72;37.92;100199.72;5050063;28;20098;-69
2023/09/24 10:19:12;;;;;;;16.20;6.15;;;;;;;31.93;39.14;100204.78;4949511;28;20073;-69
2023/09/24 10:21:39;;;;;;;12.65;5.07;;;;;;;32.04;36.22;100190.81;4949560;29;20032;-70
2023/09/24 10:24:13;;;;;;;36.58;6.90;;;;;;;32.24;37.99;100192.38;4949565;28;20043;-72
2023/09/24 10:26:48;;;;;;;20.80;6.32;;;;;;;32.31;40.41;100187.53;4948443;29;20042;-72
2023/09/24 10:29:18;;;;;;;19.63;6.15;;;;;;;32.32;37.92;100189.25;4942577;29;20094;-71
2023/09/24 10:32:09;;;;;;;48.13;7.80;;;;;;;32.42;37.59;100185.94;4953009;28;20030;-70
2023/09/24 10:37:26;;;;;;;14.15;5.88;;;;;;;32.54;38.21;100188.84;4949646;29;20052;-69
2023/09/24 10:40:13;;;;;;;15.73;6.07;;;;;;;32.51;37.35;100176.53;4948744;28;20138;-71
2023/09/24 10:42:44;;;;;;;20.52;6.72;;;;;;;32.57;36.98;100167.28;4949378;28;20115;-71
2023/09/24 10:45:12;;;;;;;19.80;6.13;;;;;;;32.45;34.66;100120.78;4932618;29;20499;-72
2023/09/24 10:47:39;;;;;;;14.35;6.32;;;;;;;32.98;34.71;100177.28;4958671;28;20128;-70
2023/09/24 10:50:18;;;;;;;17.98;5.53;;;;;;;33.09;33.70;100165.94;4947205;29;20055;-71
2023/09/24 10:52:49;;;;;;;15.07;5.72;;;;;;;33.27;33.08;100169.25;4949003;29;20475;-70
2023/09/24 10:55:16;;;;;;;15.15;5.57;;;;;;;33.24;31.98;100153.41;4971329;28;20500;-70
2023/09/24 10:57:45;;;;;;;20.35;5.75;;;;;;;33.41;34.74;100159.53;5049886;28;20025;-69
2023/09/24 11:00:16;;;;;;;18.33;6.18;;;;;;;33.55;34.20;100154.16;5049699;28;20037;-69
2023/09/24 11:02:44;;;;;;;12.63;5.43;;;;;;;33.53;34.31;100154.22;5049478;28;20032;-70
2023/09/24 11:05:10;;;;;;;20.77;5.40;;;;;;;33.21;31.07;100089.38;5039301;28;20040;-71
2023/09/24 11:07:36;;;;;;;14.63;5.03;;;;;;;33.61;30.94;100139.50;5056523;28;20481;-69
2023/09/24 11:10:02;;;;;;;20.25;5.50;;;;;;;33.74;30.45;100153.81;5042347;28;20074;-70
2023/09/24 11:12:27;;;;;;;17.05;5.05;;;;;;;33.80;30.33;100150.72;5028468;28;20133;-70
2023/09/24 11:14:59;;;;;;;18.80;5.10;;;;;;;33.86;31.40;100142.31;5017410;28;20488;-70
2023/09/24 11:17:24;;;;;;;22.95;5.25;;;;;;;33.97;29.23;100151.47;5049757;28;20025;-73
2023/09/24 11:19:50;;;;;;;16.67;4.60;;;;;;;34.02;28.31;100143.97;5049142;28;20017;-72
2023/09/24 11:22:20;;;;;;;18.42;4.93;;;;;;;34.11;30.14;100139.81;5047678;28;20033;-69